Rhinelander, WI

11:21 PM CST on November 25, 2014 (GMT -0600)
Rhinelander-Oneida County | Change Station
CLOSE
Current Station
Airport
Location: Rhinelander,
Elevation: 1624 ft
Nearby Weather Stations

Elev 1624 ft 45.63 °N, 89.48 °W | Updated 28 minutes ago

Mostly Cloudy
Mostly Cloudy
1 °F
Feels Like 1 °F
N
0
Wind Variable Wind from North

Today
High -- | Low -- °F
--% Chance of Precip.
Yesterday
High -- | Low -- °F
Precip. -- in
7:10 AM 4:18 PM
Waxing Crescent, 16% visible
Pressure 30.19 in
Visibility 7.0 miles
Clouds Mostly Cloudy 5500 ft
Dew Point -2 °F
Humidity 87%
Rainfall 0.01 in
Snow Depth Not available.
UV 0 out of 12
Pollen .10 out of 12
Air Quality Not available.
Flu Activity Not available.
METAR KRHI 260453Z AUTO 00000KT 7SM BKN055 M17/M19 A3007 RMK AO2 SLP221 T11721189

More Conditions Fewer Conditions

Pressure 30.19 in
Visibility 7.0 miles
Clouds Mostly Cloudy 5500 ft
Dew Point -2 °F
Humidity 87%
Rainfall 0.01 in
Snow Depth Not available.
UV 0 out of 12
Pollen .10 out of 12
Air Quality Not available.
Flu Activity Not available.
METAR KRHI 260453Z AUTO 00000KT 7SM BKN055 M17/M19 A3007 RMK AO2 SLP221 T11721189

More Conditions Fewer Conditions

10-Day Weather Forecast

Almanac

Astronomy

Nov. 25, 2014 Rise Set
Actual Time
Civil Twilight
Nautical Twilight
Astronomical Twilight
Moon
Length of Visible Light
Length of Day
Tomorrow will be .
, % of the Moon is Illuminated

Today's Extremes

State Highs State Lows

Community

WunderPhotos

Upload Photos

1,773,687 photos uploaded!

WunderBlogs® & News

Nearby

Air Quality

  Air Quality AQ Index Pollutant
Not available.

Snow Depth

Station Depth Elevation

Earthquake Activity

City Distance Mag. Time & Date
Minimum magnitude displayed is 2.5.

Coastal Water Temperatures

Place Temperature

Nearby Weather Stations